Saturday, January 20, 2018, 10:09 AM EST
Back to Local

KSLK, Adirondack Regional Airport

Location: Saranac Lake, NY, United States Lat: 44.4
Local Time: 10:09 AM EST (15:09 GMT) Lon: -74.2
Time Zone: US/Eastern Elev: 1663 ft

Show me the last for .
Show Decoded

2018-01-20 09:51 METAR KSLK 201451Z AUTO 23015G22KT 10SM OVC023 01/M03 A2964 RMK AO2 SNB06E16
                 SLP056 P0000 60000 T00111028 53013 $ =
2018-01-20 08:51 METAR KSLK 201351Z AUTO 24013G18KT 10SM OVC024 01/M03 A2962 RMK AO2 SLP050
                 T00061033 $ =
2018-01-20 07:51 METAR KSLK 201251Z AUTO 24007G19KT 10SM OVC029 01/M04 A2960 RMK AO2 SLP043
                 T00061039 $ =
2018-01-20 07:48 METAR KSLK 201248Z AUTO 24013G19KT 10SM OVC029 00/M04 A2960 RMK AO2 $ =
2018-01-20 06:51 METAR KSLK 201151Z AUTO 23014G23KT 10SM OVC033 00/M04 A2958 RMK AO2 SNB19E29
                 SLP035 P0000 60000 T00001044 10000 21017 53012 $ =
2018-01-20 05:51 METAR KSLK 201051Z AUTO 23012G27KT 9SM BKN120 00/M05 A2955 RMK AO2 PK WND
                 23027/1044 SNB38E51 SLP025 P0000 T00001050 $ =
2018-01-20 04:51 METAR KSLK 200951Z AUTO 22014G19KT 10SM BKN120 00/M04 A2953 RMK AO2 SLP018
                 T00001044 $ =
2018-01-20 03:51 METAR KSLK 200851Z AUTO 23013KT 10SM FEW120 M01/M05 A2954 RMK AO2 SLP023
                 T10061050 56023 $ =
2018-01-20 01:51 METAR KSLK 200651Z AUTO 21013KT 10SM OVC110 M02/M05 A2959 RMK AO2 SLP041
                 T10171050 $ =
2018-01-20 00:51 METAR KSLK 200551Z AUTO 21008KT 10SM BKN075 OVC090 M02/M05 A2961 RMK AO2 SLP048
                 T10171050 11017 21061 56027 $ =
2018-01-19 23:51 METAR KSLK 200451Z AUTO 22009KT 10SM SCT060 BKN090 OVC110 M03/M06 A2962 RMK AO2
                 SLP054 T10331061 410331083 $ =
2018-01-19 22:51 METAR KSLK 200351Z AUTO 23007KT 10SM SCT080 M04/M06 A2965 RMK AO2 SLP065
                 T10391061 $ =
2018-01-19 21:51 METAR KSLK 200251Z AUTO 23006KT 10SM FEW090 M04/M07 A2969 RMK AO2 SLP080
                 T10441067 56017 $ =
2018-01-19 20:51 METAR KSLK 200151Z AUTO 22005KT 9SM FEW095 M06/M08 A2970 RMK AO2 SLP084
                 T10611078 $ =
2018-01-19 19:51 METAR KSLK 200051Z AUTO 21008KT 8SM BKN100 M06/M07 A2974 RMK AO2 SLP095
                 T10561067 $ =
2018-01-19 18:51 METAR KSLK 192351Z AUTO 22005KT 7SM CLR M06/M07 A2975 RMK AO2 SLP099 I6001
                 T10561067 11044 21056 58001 $ =
2018-01-19 18:30 METAR KSLK 192330Z AUTO 21005KT 7SM SCT014 SCT019 M05/M06 A2974 RMK AO2
                 T10501061 $ =
2018-01-19 18:13 METAR KSLK 192313Z AUTO 23006KT 7SM FEW009 OVC014 M05/M06 A2976 RMK AO2
                 T10501056 $ =
2018-01-19 18:04 METAR KSLK 192304Z AUTO 23005KT 7SM SCT010 OVC016 M05/M06 A2976 RMK AO2
                 T10501056 $ =
2018-01-19 17:51 METAR KSLK 192251Z AUTO 23006KT 6SM BR BKN008 OVC014 M05/M06 A2976 RMK AO2 CIG
                 007V012 SLP102 T10501056 $ =
2018-01-19 16:51 METAR KSLK 192151Z AUTO 22009KT 6SM BR OVC007 M05/M06 A2976 RMK AO2 SLP103
                 T10501056 $ =
2018-01-19 15:51 METAR KSLK 192051Z AUTO 21010KT 4SM BR OVC006 M05/M06 A2975 RMK AO2 SLP100 I3001
                 T10501056 58007 =
2018-01-19 15:03 METAR KSLK 192003Z AUTO 22010KT 3SM BR OVC006 M04/M06 A2977 RMK AO2 T10441056 =
2018-01-19 14:51 METAR KSLK 191951Z AUTO 22010KT 2 1/2SM BR OVC006 M05/M06 A2978 RMK AO2 SLP109
                 I1001 T10501056 =
2018-01-19 14:48 METAR KSLK 191948Z AUTO 22010KT 2 1/2SM BR OVC007 M05/M06 A2978 RMK AO2 I1001 =
2018-01-19 14:18 METAR KSLK 191918Z AUTO 23011KT 3SM BR OVC007 M05/M06 A2978 RMK AO2 I1000
                 T10501056 =
2018-01-19 14:00 METAR KSLK 191900Z AUTO 22010KT 2 1/2SM BR OVC007 M05/M06 A2977 RMK AO2 I1000
                 T10501056 =
2018-01-19 13:51 METAR KSLK 191851Z AUTO 22011KT 3SM BR OVC008 M05/M06 A2977 RMK AO2 SLP108
                 T10501056 =
2018-01-19 13:35 METAR KSLK 191835Z AUTO 22011KT 3SM BR OVC009 M05/M06 A2978 RMK AO2 T10501061 =
2018-01-19 12:51 METAR KSLK 191751Z AUTO 23010KT 4SM BR OVC010 M06/M07 A2979 RMK AO2 SLP112 I6000
                 T10561067 11056 21072 58010 =
2018-01-19 11:51 METAR KSLK 191651Z AUTO 24006KT 5SM BR OVC012 M06/M07 A2980 RMK AO2 SLP115
                 T10561067 =
2018-01-19 10:59 METAR KSLK 191559Z AUTO 4SM BR OVC014 M06/M07 A2981 RMK AO2 T10561067 $ =
2018-01-19 10:51 METAR KSLK 191551Z AUTO 3SM BR SCT011 OVC016 M06/M07 A2981 RMK AO2 SLP122
                 T10611072 $ =
2018-01-19 10:37 METAR KSLK 191537Z AUTO 3SM BR BKN016 OVC022 M06/M07 A2982 RMK AO2 T10611072 $ =
2018-01-19 10:13 METAR KSLK 191513Z AUTO 2SM BR FEW010 OVC020 M06/M07 A2982 RMK AO2 T10611072 $ =

Support USWX by starting your Amazon purchase here.